KPRC

Ernest A Love Field Airport

Prescott, Arizona, USA
METAR KPRC 261253Z 21003KT 10SM CLR 10/M04 A2999 RMK AO2 SLP087 T01001044
Observed Flight Rules
May-26 @ 12:53 UTC (32 minutes ago) Visual Flight Rules
Wind Visibility Clouds
210° at 3 knots 10 miles
  • Clear skies
Temperatures Readings
Current 10°C / 50°F
Dewpoint -4°C / 25°F
Humidity 37%
Altimeter 29.99" Hg
Pressure 1008.7 hPa
Elevation 1524
METAR KPRC 261253Z 21003KT 10SM CLR 10/M04 A2999 RMK AO2 SLP087 T01001044
Observed Flight Rules
May-26 @ 12:53 UTC
(32 minutes ago)
VFR
Wind Visibility
210° at 3 knots 10 miles
Clouds
  • Clear skies
Temperature Dewpoint
10°C / 50°F -4°C / 25°F
Humidity Altimeter Pressure
37% 29.99" Hg 1008.7 hPa